sensor_id;sensor_type;location;lat;lon;timestamp;pressure;altitude;pressure_sealevel;temperature;humidity
75913;BME280;64592;52.168;21.040;2022-12-07T00:02:15;99722.16;;;0.66;93.29
75913;BME280;64592;52.168;21.040;2022-12-07T00:07:18;99719.41;;;0.67;93.51
75913;BME280;64592;52.168;21.040;2022-12-07T00:12:20;99710.53;;;0.68;93.90
75913;BME280;64592;52.168;21.040;2022-12-07T00:17:21;99702.50;;;0.70;93.54
75913;BME280;64592;52.168;21.040;2022-12-07T00:22:24;99703.25;;;0.73;94.16
75913;BME280;64592;52.168;21.040;2022-12-07T00:27:27;99702.16;;;0.77;93.39
75913;BME280;64592;52.168;21.040;2022-12-07T00:32:28;99698.50;;;0.80;93.61
75913;BME280;64592;52.168;21.040;2022-12-07T00:37:31;99689.69;;;0.80;93.88
75913;BME280;64592;52.168;21.040;2022-12-07T00:42:33;99692.19;;;0.83;94.43
75913;BME280;64592;52.168;21.040;2022-12-07T00:47:34;99685.81;;;0.87;94.78
75913;BME280;64592;52.168;21.040;2022-12-07T00:52:37;99687.44;;;0.89;94.30
75913;BME280;64592;52.168;21.040;2022-12-07T00:57:39;99684.66;;;0.92;94.55
75913;BME280;64592;52.168;21.040;2022-12-07T01:02:41;99679.13;;;0.97;94.82
75913;BME280;64592;52.168;21.040;2022-12-07T01:07:44;99685.09;;;1.02;94.89
75913;BME280;64592;52.168;21.040;2022-12-07T01:12:46;99690.13;;;1.08;94.85
75913;BME280;64592;52.168;21.040;2022-12-07T01:17:48;99683.72;;;1.12;95.19
75913;BME280;64592;52.168;21.040;2022-12-07T01:22:51;99684.38;;;1.17;95.32
75913;BME280;64592;52.168;21.040;2022-12-07T01:27:53;99690.31;;;1.22;95.00
75913;BME280;64592;52.168;21.040;2022-12-07T01:32:54;99688.38;;;1.26;95.19
75913;BME280;64592;52.168;21.040;2022-12-07T01:37:57;99683.69;;;1.31;95.08
75913;BME280;64592;52.168;21.040;2022-12-07T01:42:59;99683.47;;;1.35;95.11
75913;BME280;64592;52.168;21.040;2022-12-07T01:48:01;99680.59;;;1.40;94.77
75913;BME280;64592;52.168;21.040;2022-12-07T01:53:06;99682.97;;;1.46;94.83
75913;BME280;64592;52.168;21.040;2022-12-07T01:58:11;99678.34;;;1.49;94.64
75913;BME280;64592;52.168;21.040;2022-12-07T02:03:17;99676.41;;;1.53;94.99
75913;BME280;64592;52.168;21.040;2022-12-07T02:08:22;99661.16;;;1.56;94.98
75913;BME280;64592;52.168;21.040;2022-12-07T02:13:27;99661.94;;;1.59;94.94
75913;BME280;64592;52.168;21.040;2022-12-07T02:18:45;99665.41;;;1.61;94.72
75913;BME280;64592;52.168;21.040;2022-12-07T02:24:14;99668.00;;;1.62;94.92
75913;BME280;64592;52.168;21.040;2022-12-07T02:29:22;99665.22;;;1.64;94.66
75913;BME280;64592;52.168;21.040;2022-12-07T02:34:31;99670.53;;;1.64;94.40
75913;BME280;64592;52.168;21.040;2022-12-07T02:39:39;99659.91;;;1.64;94.14
75913;BME280;64592;52.168;21.040;2022-12-07T02:44:43;99646.88;;;1.59;93.85
75913;BME280;64592;52.168;21.040;2022-12-07T02:49:46;99652.25;;;1.58;93.68
75913;BME280;64592;52.168;21.040;2022-12-07T02:54:48;99640.78;;;1.57;93.55
75913;BME280;64592;52.168;21.040;2022-12-07T03:00:00;99645.41;;;1.53;93.85
75913;BME280;64592;52.168;21.040;2022-12-07T03:05:15;99641.94;;;1.51;93.94
75913;BME280;64592;52.168;21.040;2022-12-07T03:10:24;99642.88;;;1.50;94.16
75913;BME280;64592;52.168;21.040;2022-12-07T03:15:32;99634.13;;;1.48;94.19
75913;BME280;64592;52.168;21.040;2022-12-07T03:20:35;99638.69;;;1.46;93.75
75913;BME280;64592;52.168;21.040;2022-12-07T03:25:39;99632.72;;;1.41;93.50
75913;BME280;64592;52.168;21.040;2022-12-07T03:30:47;99628.38;;;1.40;93.17
75913;BME280;64592;52.168;21.040;2022-12-07T03:35:55;99632.88;;;1.38;93.13
75913;BME280;64592;52.168;21.040;2022-12-07T03:41:02;99625.00;;;1.37;92.72
75913;BME280;64592;52.168;21.040;2022-12-07T03:46:14;99620.84;;;1.31;92.89
75913;BME280;64592;52.168;21.040;2022-12-07T03:51:24;99621.00;;;1.28;92.89
75913;BME280;64592;52.168;21.040;2022-12-07T03:56:29;99606.94;;;1.26;92.89
75913;BME280;64592;52.168;21.040;2022-12-07T04:01:32;99605.50;;;1.19;93.00
75913;BME280;64592;52.168;21.040;2022-12-07T04:06:34;99607.09;;;1.23;93.28
75913;BME280;64592;52.168;21.040;2022-12-07T04:11:36;99607.25;;;1.20;93.27
75913;BME280;64592;52.168;21.040;2022-12-07T04:16:39;99605.50;;;1.19;92.91
75913;BME280;64592;52.168;21.040;2022-12-07T04:21:41;99616.13;;;1.19;92.96
75913;BME280;64592;52.168;21.040;2022-12-07T04:26:43;99605.63;;;1.17;92.96
75913;BME280;64592;52.168;21.040;2022-12-07T04:31:47;99598.66;;;1.15;93.31
75913;BME280;64592;52.168;21.040;2022-12-07T04:36:49;99611.91;;;1.15;93.39
75913;BME280;64592;52.168;21.040;2022-12-07T04:41:51;99614.72;;;1.12;93.36
75913;BME280;64592;52.168;21.040;2022-12-07T04:46:54;99613.09;;;1.09;93.03
75913;BME280;64592;52.168;21.040;2022-12-07T04:51:57;99610.56;;;1.06;93.38
75913;BME280;64592;52.168;21.040;2022-12-07T04:56:58;99603.72;;;1.02;92.76
75913;BME280;64592;52.168;21.040;2022-12-07T05:02:01;99596.81;;;0.98;92.75
75913;BME280;64592;52.168;21.040;2022-12-07T05:07:03;99591.69;;;0.95;92.43
75913;BME280;64592;52.168;21.040;2022-12-07T05:12:05;99590.94;;;0.92;93.12
75913;BME280;64592;52.168;21.040;2022-12-07T05:17:08;99585.94;;;0.86;93.23
75913;BME280;64592;52.168;21.040;2022-12-07T05:22:09;99578.91;;;0.85;92.35
75913;BME280;64592;52.168;21.040;2022-12-07T05:27:11;99581.88;;;0.78;92.43
75913;BME280;64592;52.168;21.040;2022-12-07T05:32:14;99578.59;;;0.73;93.13
75913;BME280;64592;52.168;21.040;2022-12-07T05:37:16;99581.25;;;0.73;93.03
75913;BME280;64592;52.168;21.040;2022-12-07T05:42:17;99578.66;;;0.72;92.94
75913;BME280;64592;52.168;21.040;2022-12-07T05:47:21;99582.47;;;0.66;92.69
75913;BME280;64592;52.168;21.040;2022-12-07T05:52:22;99590.56;;;0.63;93.28
75913;BME280;64592;52.168;21.040;2022-12-07T05:57:24;99592.34;;;0.63;93.54
75913;BME280;64592;52.168;21.040;2022-12-07T06:02:27;99590.84;;;0.57;93.26
75913;BME280;64592;52.168;21.040;2022-12-07T06:07:29;99586.41;;;0.58;93.50
75913;BME280;64592;52.168;21.040;2022-12-07T06:12:30;99589.06;;;0.58;93.23
75913;BME280;64592;52.168;21.040;2022-12-07T06:17:36;99587.28;;;0.58;93.27
75913;BME280;64592;52.168;21.040;2022-12-07T06:22:38;99589.00;;;0.59;93.00
75913;BME280;64592;52.168;21.040;2022-12-07T06:27:39;99589.13;;;0.56;93.32
75913;BME280;64592;52.168;21.040;2022-12-07T06:32:42;99576.81;;;0.55;93.34
75913;BME280;64592;52.168;21.040;2022-12-07T06:37:44;99583.97;;;0.53;93.25
75913;BME280;64592;52.168;21.040;2022-12-07T06:42:46;99578.66;;;0.53;93.60
75913;BME280;64592;52.168;21.040;2022-12-07T06:47:49;99573.53;;;0.50;93.75
75913;BME280;64592;52.168;21.040;2022-12-07T06:52:51;99585.91;;;0.50;93.22
75913;BME280;64592;52.168;21.040;2022-12-07T06:57:52;99579.75;;;0.49;93.44
75913;BME280;64592;52.168;21.040;2022-12-07T07:02:55;99577.16;;;0.48;93.18
75913;BME280;64592;52.168;21.040;2022-12-07T07:07:57;99580.69;;;0.48;93.42
75913;BME280;64592;52.168;21.040;2022-12-07T07:12:59;99583.31;;;0.48;93.87
75913;BME280;64592;52.168;21.040;2022-12-07T07:18:02;99583.41;;;0.47;93.42
75913;BME280;64592;52.168;21.040;2022-12-07T07:23:04;99582.53;;;0.46;93.65
75913;BME280;64592;52.168;21.040;2022-12-07T07:28:06;99580.75;;;0.47;93.56
75913;BME280;64592;52.168;21.040;2022-12-07T07:33:09;99583.25;;;0.50;93.82
75913;BME280;64592;52.168;21.040;2022-12-07T07:38:11;99590.41;;;0.48;93.33
75913;BME280;64592;52.168;21.040;2022-12-07T07:43:12;99587.47;;;0.54;93.31
75913;BME280;64592;52.168;21.040;2022-12-07T07:48:15;99577.97;;;0.50;93.65
75913;BME280;64592;52.168;21.040;2022-12-07T07:53:17;99584.13;;;0.50;93.45
75913;BME280;64592;52.168;21.040;2022-12-07T07:58:19;99583.19;;;0.51;93.36
75913;BME280;64592;52.168;21.040;2022-12-07T08:03:22;99586.53;;;0.55;93.62
75913;BME280;64592;52.168;21.040;2022-12-07T08:08:23;99586.34;;;0.59;94.04
75913;BME280;64592;52.168;21.040;2022-12-07T08:13:25;99587.19;;;0.60;94.09
75913;BME280;64592;52.168;21.040;2022-12-07T08:18:28;99595.88;;;0.63;94.09
75913;BME280;64592;52.168;21.040;2022-12-07T08:23:30;99594.00;;;0.65;94.28
75913;BME280;64592;52.168;21.040;2022-12-07T08:28:32;99586.69;;;0.70;94.67
75913;BME280;64592;52.168;21.040;2022-12-07T08:33:35;99597.28;;;0.70;94.54
75913;BME280;64592;52.168;21.040;2022-12-07T08:38:38;99602.47;;;0.73;94.78
75913;BME280;64592;52.168;21.040;2022-12-07T08:43:40;99600.56;;;0.75;94.96
75913;BME280;64592;52.168;21.040;2022-12-07T08:48:45;99603.03;;;0.80;95.42
75913;BME280;64592;52.168;21.040;2022-12-07T08:53:49;99604.59;;;0.84;94.92
75913;BME280;64592;52.168;21.040;2022-12-07T08:58:51;99604.22;;;0.92;95.05
75913;BME280;64592;52.168;21.040;2022-12-07T09:03:55;99601.13;;;1.01;94.79
75913;BME280;64592;52.168;21.040;2022-12-07T09:08:58;99595.50;;;1.07;94.12
75913;BME280;64592;52.168;21.040;2022-12-07T09:14:02;99594.34;;;1.12;94.14
75913;BME280;64592;52.168;21.040;2022-12-07T09:19:05;99588.66;;;1.20;93.92
75913;BME280;64592;52.168;21.040;2022-12-07T09:24:07;99578.69;;;1.25;93.38
75913;BME280;64592;52.168;21.040;2022-12-07T09:29:09;99575.72;;;1.31;92.83
75913;BME280;64592;52.168;21.040;2022-12-07T09:34:12;99578.13;;;1.36;93.30
75913;BME280;64592;52.168;21.040;2022-12-07T09:39:14;99576.97;;;1.41;92.74
75913;BME280;64592;52.168;21.040;2022-12-07T09:44:21;99575.03;;;1.45;92.50
75913;BME280;64592;52.168;21.040;2022-12-07T09:49:28;99578.28;;;1.50;92.01
75913;BME280;64592;52.168;21.040;2022-12-07T09:54:33;99564.78;;;1.54;91.48
75913;BME280;64592;52.168;21.040;2022-12-07T09:59:35;99571.66;;;1.59;90.80
75913;BME280;64592;52.168;21.040;2022-12-07T10:04:38;99564.47;;;1.61;91.13
75913;BME280;64592;52.168;21.040;2022-12-07T10:09:40;99552.91;;;1.62;90.31
75913;BME280;64592;52.168;21.040;2022-12-07T10:14:54;99552.75;;;1.65;90.58
75913;BME280;64592;52.168;21.040;2022-12-07T10:20:17;99553.38;;;1.70;89.75
75913;BME280;64592;52.168;21.040;2022-12-07T10:25:21;99548.81;;;1.72;89.20
75913;BME280;64592;52.168;21.040;2022-12-07T10:30:23;99551.47;;;1.72;89.37
75913;BME280;64592;52.168;21.040;2022-12-07T10:35:28;99547.75;;;1.76;89.07
75913;BME280;64592;52.168;21.040;2022-12-07T10:40:31;99547.75;;;1.76;89.44
75913;BME280;64592;52.168;21.040;2022-12-07T10:45:35;99553.91;;;1.76;88.80
75913;BME280;64592;52.168;21.040;2022-12-07T10:51:04;99547.47;;;1.80;88.06
75913;BME280;64592;52.168;21.040;2022-12-07T10:56:29;99559.75;;;1.83;88.17
75913;BME280;64592;52.168;21.040;2022-12-07T11:01:41;99551.78;;;1.83;88.45
75913;BME280;64592;52.168;21.040;2022-12-07T11:06:51;99539.44;;;1.82;86.83
75913;BME280;64592;52.168;21.040;2022-12-07T11:12:01;99544.59;;;1.85;88.15
75913;BME280;64592;52.168;21.040;2022-12-07T11:17:08;99544.44;;;1.88;88.04
75913;BME280;64592;52.168;21.040;2022-12-07T11:22:15;99552.41;;;1.88;88.44
75913;BME280;64592;52.168;21.040;2022-12-07T11:27:25;99547.09;;;1.88;87.94
75913;BME280;64592;52.168;21.040;2022-12-07T11:32:51;99539.91;;;1.90;87.75
75913;BME280;64592;52.168;21.040;2022-12-07T11:38:00;99541.63;;;1.91;87.80
75913;BME280;64592;52.168;21.040;2022-12-07T11:43:11;99537.16;;;1.91;87.14
75913;BME280;64592;52.168;21.040;2022-12-07T11:48:19;99530.91;;;1.92;87.86
75913;BME280;64592;52.168;21.040;2022-12-07T11:53:26;99527.22;;;1.95;88.24
75913;BME280;64592;52.168;21.040;2022-12-07T11:58:41;99528.06;;;1.95;88.07
75913;BME280;64592;52.168;21.040;2022-12-07T12:03:47;99533.38;;;1.95;88.08
75913;BME280;64592;52.168;21.040;2022-12-07T12:08:53;99517.44;;;1.95;87.64
75913;BME280;64592;52.168;21.040;2022-12-07T12:14:11;99523.78;;;1.93;88.46
75913;BME280;64592;52.168;21.040;2022-12-07T12:19:26;99518.63;;;1.90;88.27
75913;BME280;64592;52.168;21.040;2022-12-07T12:24:33;99512.78;;;1.83;90.00
75913;BME280;64592;52.168;21.040;2022-12-07T12:29:39;99513.66;;;1.84;90.93
75913;BME280;64592;52.168;21.040;2022-12-07T12:35:02;99505.91;;;1.79;90.47
75913;BME280;64592;52.168;21.040;2022-12-07T12:40:42;99506.78;;;1.80;90.09
75913;BME280;64592;52.168;21.040;2022-12-07T12:45:44;99502.50;;;1.77;89.99
75913;BME280;64592;52.168;21.040;2022-12-07T12:50:45;99496.41;;;1.75;90.19
75913;BME280;64592;52.168;21.040;2022-12-07T12:56:26;99500.00;;;1.74;90.48
75913;BME280;64592;52.168;21.040;2022-12-07T13:01:40;99501.78;;;1.74;90.08
75913;BME280;64592;52.168;21.040;2022-12-07T13:06:42;99489.53;;;1.71;89.73
75913;BME280;64592;52.168;21.040;2022-12-07T13:11:45;99496.56;;;1.72;88.95
75913;BME280;64592;52.168;21.040;2022-12-07T13:16:47;99485.84;;;1.74;88.25
75913;BME280;64592;52.168;21.040;2022-12-07T13:21:49;99488.50;;;1.74;87.96
75913;BME280;64592;52.168;21.040;2022-12-07T13:26:55;99483.13;;;1.75;88.16
75913;BME280;64592;52.168;21.040;2022-12-07T13:31:58;99486.56;;;1.77;88.08
75913;BME280;64592;52.168;21.040;2022-12-07T13:37:01;99491.03;;;1.77;88.90
75913;BME280;64592;52.168;21.040;2022-12-07T13:42:24;99488.78;;;1.69;88.82
75913;BME280;64592;52.168;21.040;2022-12-07T13:47:34;99491.50;;;1.68;89.41
75913;BME280;64592;52.168;21.040;2022-12-07T13:52:43;99500.41;;;1.67;89.21
75913;BME280;64592;52.168;21.040;2022-12-07T13:57:49;99495.34;;;1.62;89.36
75913;BME280;64592;52.168;21.040;2022-12-07T14:02:56;99494.56;;;1.60;89.40
75913;BME280;64592;52.168;21.040;2022-12-07T14:08:02;99494.56;;;1.60;88.94
75913;BME280;64592;52.168;21.040;2022-12-07T14:13:27;99507.91;;;1.59;88.53
75913;BME280;64592;52.168;21.040;2022-12-07T14:18:36;99500.03;;;1.57;88.26
75913;BME280;64592;52.168;21.040;2022-12-07T14:23:39;99516.13;;;1.54;87.65
75913;BME280;64592;52.168;21.040;2022-12-07T14:28:43;99509.19;;;1.51;87.99
75913;BME280;64592;52.168;21.040;2022-12-07T14:33:45;99505.06;;;1.46;87.16
75913;BME280;64592;52.168;21.040;2022-12-07T14:38:46;99509.66;;;1.42;87.05
75913;BME280;64592;52.168;21.040;2022-12-07T14:43:49;99505.44;;;1.38;87.90
75913;BME280;64592;52.168;21.040;2022-12-07T14:48:51;99502.19;;;1.33;88.01
75913;BME280;64592;52.168;21.040;2022-12-07T14:53:53;99505.13;;;1.27;88.18
75913;BME280;64592;52.168;21.040;2022-12-07T14:58:56;99497.56;;;1.20;88.77
75913;BME280;64592;52.168;21.040;2022-12-07T15:03:58;99501.38;;;1.14;89.83
75913;BME280;64592;52.168;21.040;2022-12-07T15:09:00;99495.41;;;1.10;90.16
75913;BME280;64592;52.168;21.040;2022-12-07T15:14:03;99494.53;;;1.10;90.06
75913;BME280;64592;52.168;21.040;2022-12-07T15:19:13;99491.09;;;1.08;90.18
75913;BME280;64592;52.168;21.040;2022-12-07T15:24:15;99487.66;;;1.06;90.47
75913;BME280;64592;52.168;21.040;2022-12-07T15:29:18;99480.00;;;1.00;90.66
75913;BME280;64592;52.168;21.040;2022-12-07T15:34:20;99479.16;;;0.99;90.93
75913;BME280;64592;52.168;21.040;2022-12-07T15:39:21;99477.34;;;1.00;90.87
75913;BME280;64592;52.168;21.040;2022-12-07T15:44:24;99485.38;;;0.98;91.48
75913;BME280;64592;52.168;21.040;2022-12-07T15:49:55;99486.50;;;0.94;91.33
75913;BME280;64592;52.168;21.040;2022-12-07T15:54:56;99483.84;;;0.94;91.50
75913;BME280;64592;52.168;21.040;2022-12-07T16:00:02;99479.38;;;0.95;91.59
75913;BME280;64592;52.168;21.040;2022-12-07T16:05:04;99479.38;;;0.95;91.63
75913;BME280;64592;52.168;21.040;2022-12-07T16:10:06;99465.81;;;1.01;91.40
75913;BME280;64592;52.168;21.040;2022-12-07T16:15:10;99470.19;;;1.02;91.37
75913;BME280;64592;52.168;21.040;2022-12-07T16:20:12;99466.41;;;1.06;91.94
75913;BME280;64592;52.168;21.040;2022-12-07T16:25:13;99468.06;;;1.08;91.25
75913;BME280;64592;52.168;21.040;2022-12-07T16:30:16;99478.63;;;1.10;91.29
75913;BME280;64592;52.168;21.040;2022-12-07T16:35:18;99470.47;;;1.13;91.14
75913;BME280;64592;52.168;21.040;2022-12-07T16:40:20;99478.38;;;1.14;90.99
75913;BME280;64592;52.168;21.040;2022-12-07T16:45:23;99471.25;;;1.15;90.68
75913;BME280;64592;52.168;21.040;2022-12-07T16:50:25;99468.63;;;1.15;90.47
75913;BME280;64592;52.168;21.040;2022-12-07T16:55:26;99463.22;;;1.16;89.67
75913;BME280;64592;52.168;21.040;2022-12-07T17:00:29;99450.81;;;1.17;89.28
75913;BME280;64592;52.168;21.040;2022-12-07T17:05:31;99457.84;;;1.18;89.83
75913;BME280;64592;52.168;21.040;2022-12-07T17:10:34;99464.78;;;1.21;89.51
75913;BME280;64592;52.168;21.040;2022-12-07T17:15:37;99454.88;;;1.24;89.27
75913;BME280;64592;52.168;21.040;2022-12-07T17:20:39;99445.97;;;1.25;89.07
75913;BME280;64592;52.168;21.040;2022-12-07T17:25:41;99462.66;;;1.27;88.40
75913;BME280;64592;52.168;21.040;2022-12-07T17:30:44;99456.41;;;1.28;88.75
75913;BME280;64592;52.168;21.040;2022-12-07T17:35:45;99465.25;;;1.29;89.21
75913;BME280;64592;52.168;21.040;2022-12-07T17:40:48;99460.78;;;1.29;89.10
75913;BME280;64592;52.168;21.040;2022-12-07T17:45:51;99465.03;;;1.33;88.25
75913;BME280;64592;52.168;21.040;2022-12-07T17:50:52;99465.09;;;1.32;88.44
75913;BME280;64592;52.168;21.040;2022-12-07T17:56:11;99458.66;;;1.36;87.76
75913;BME280;64592;52.168;21.040;2022-12-07T18:01:15;99454.94;;;1.40;87.64
75913;BME280;64592;52.168;21.040;2022-12-07T18:06:16;99455.94;;;1.37;88.54
75913;BME280;64592;52.168;21.040;2022-12-07T18:11:18;99450.72;;;1.36;89.15
75913;BME280;64592;52.168;21.040;2022-12-07T18:16:24;99456.94;;;1.35;88.62
75913;BME280;64592;52.168;21.040;2022-12-07T18:21:27;99460.47;;;1.35;88.41
75913;BME280;64592;52.168;21.040;2022-12-07T18:26:31;99463.97;;;1.36;88.99
75913;BME280;64592;52.168;21.040;2022-12-07T18:31:36;99469.16;;;1.39;87.87
75913;BME280;64592;52.168;21.040;2022-12-07T18:36:38;99463.56;;;1.43;87.50
75913;BME280;64592;52.168;21.040;2022-12-07T18:41:41;99464.38;;;1.45;87.04
75913;BME280;64592;52.168;21.040;2022-12-07T18:46:45;99468.66;;;1.48;87.37
75913;BME280;64592;52.168;21.040;2022-12-07T18:51:47;99468.56;;;1.49;87.04
75913;BME280;64592;52.168;21.040;2022-12-07T18:56:49;99484.41;;;1.51;87.19
75913;BME280;64592;52.168;21.040;2022-12-07T19:01:53;99478.09;;;1.53;86.60
75913;BME280;64592;52.168;21.040;2022-12-07T19:06:54;99480.81;;;1.52;86.82
75913;BME280;64592;52.168;21.040;2022-12-07T19:11:56;99481.84;;;1.49;86.59
75913;BME280;64592;52.168;21.040;2022-12-07T19:17:04;99484.41;;;1.51;85.86
75913;BME280;64592;52.168;21.040;2022-12-07T19:22:07;99487.16;;;1.49;86.37
75913;BME280;64592;52.168;21.040;2022-12-07T19:27:09;99496.03;;;1.48;85.71
75913;BME280;64592;52.168;21.040;2022-12-07T19:32:13;99513.69;;;1.49;85.19
75913;BME280;64592;52.168;21.040;2022-12-07T19:37:15;99503.94;;;1.50;84.35
75913;BME280;64592;52.168;21.040;2022-12-07T19:42:17;99511.97;;;1.48;84.26
75913;BME280;64592;52.168;21.040;2022-12-07T19:47:20;99524.50;;;1.46;83.47
75913;BME280;64592;52.168;21.040;2022-12-07T19:52:22;99528.09;;;1.45;83.24
75913;BME280;64592;52.168;21.040;2022-12-07T19:57:25;99532.78;;;1.40;83.63
75913;BME280;64592;52.168;21.040;2022-12-07T20:02:28;99542.44;;;1.41;82.55
75913;BME280;64592;52.168;21.040;2022-12-07T20:07:30;99556.81;;;1.37;81.63
75913;BME280;64592;52.168;21.040;2022-12-07T20:12:36;99565.91;;;1.33;80.17
75913;BME280;64592;52.168;21.040;2022-12-07T20:17:57;99569.69;;;1.28;80.18
75913;BME280;64592;52.168;21.040;2022-12-07T20:22:58;99575.38;;;1.20;80.67
75913;BME280;64592;52.168;21.040;2022-12-07T20:28:00;99575.69;;;1.14;81.14
75913;BME280;64592;52.168;21.040;2022-12-07T20:33:03;99577.78;;;1.07;81.24
75913;BME280;64592;52.168;21.040;2022-12-07T20:38:05;99583.56;;;0.98;81.42
75913;BME280;64592;52.168;21.040;2022-12-07T20:43:07;99590.88;;;0.93;81.20
75913;BME280;64592;52.168;21.040;2022-12-07T20:48:10;99597.97;;;0.93;80.82
75913;BME280;64592;52.168;21.040;2022-12-07T20:53:12;99596.50;;;0.87;81.46
75913;BME280;64592;52.168;21.040;2022-12-07T20:58:13;99599.09;;;0.89;81.53
75913;BME280;64592;52.168;21.040;2022-12-07T21:03:16;99602.56;;;0.89;81.50
75913;BME280;64592;52.168;21.040;2022-12-07T21:08:18;99609.03;;;0.84;81.25
75913;BME280;64592;52.168;21.040;2022-12-07T21:13:20;99615.34;;;0.81;80.71
75913;BME280;64592;52.168;21.040;2022-12-07T21:18:23;99612.91;;;0.76;80.97
75913;BME280;64592;52.168;21.040;2022-12-07T21:23:24;99618.50;;;0.70;81.13
75913;BME280;64592;52.168;21.040;2022-12-07T21:28:26;99622.38;;;0.63;81.45
75913;BME280;64592;52.168;21.040;2022-12-07T21:33:29;99626.13;;;0.59;81.42
75913;BME280;64592;52.168;21.040;2022-12-07T21:38:31;99633.41;;;0.54;81.49
75913;BME280;64592;52.168;21.040;2022-12-07T21:43:33;99630.13;;;0.49;81.85
75913;BME280;64592;52.168;21.040;2022-12-07T21:48:36;99633.81;;;0.45;81.87
75913;BME280;64592;52.168;21.040;2022-12-07T21:53:40;99634.00;;;0.42;81.51
75913;BME280;64592;52.168;21.040;2022-12-07T21:58:42;99624.38;;;0.39;81.47
75913;BME280;64592;52.168;21.040;2022-12-07T22:03:46;99620.78;;;0.41;81.58
75913;BME280;64592;52.168;21.040;2022-12-07T22:08:48;99615.38;;;0.44;81.83
75913;BME280;64592;52.168;21.040;2022-12-07T22:13:49;99626.84;;;0.44;81.16
75913;BME280;64592;52.168;21.040;2022-12-07T22:19:10;99624.19;;;0.44;81.78
75913;BME280;64592;52.168;21.040;2022-12-07T22:24:12;99630.25;;;0.46;81.73
75913;BME280;64592;52.168;21.040;2022-12-07T22:29:14;99619.50;;;0.49;81.62
75913;BME280;64592;52.168;21.040;2022-12-07T22:34:17;99637.91;;;0.52;82.51
75913;BME280;64592;52.168;21.040;2022-12-07T22:39:19;99637.00;;;0.53;82.53
75913;BME280;64592;52.168;21.040;2022-12-07T22:44:20;99644.19;;;0.51;82.19
75913;BME280;64592;52.168;21.040;2022-12-07T22:49:23;99631.69;;;0.53;82.23
75913;BME280;64592;52.168;21.040;2022-12-07T22:54:25;99628.09;;;0.54;82.17
75913;BME280;64592;52.168;21.040;2022-12-07T22:59:27;99631.63;;;0.55;82.36
75913;BME280;64592;52.168;21.040;2022-12-07T23:04:30;99628.91;;;0.56;82.30
75913;BME280;64592;52.168;21.040;2022-12-07T23:09:32;99632.41;;;0.57;82.44
75913;BME280;64592;52.168;21.040;2022-12-07T23:14:35;99635.00;;;0.58;82.63
75913;BME280;64592;52.168;21.040;2022-12-07T23:19:38;99636.72;;;0.59;83.18
75913;BME280;64592;52.168;21.040;2022-12-07T23:24:40;99648.25;;;0.58;83.28
75913;BME280;64592;52.168;21.040;2022-12-07T23:29:42;99650.13;;;0.56;83.97
75913;BME280;64592;52.168;21.040;2022-12-07T23:34:45;99636.84;;;0.56;83.85
75913;BME280;64592;52.168;21.040;2022-12-07T23:39:46;99648.31;;;0.57;84.48
75913;BME280;64592;52.168;21.040;2022-12-07T23:44:48;99647.34;;;0.59;84.31
75913;BME280;64592;52.168;21.040;2022-12-07T23:49:51;99651.78;;;0.59;83.62
75913;BME280;64592;52.168;21.040;2022-12-07T23:54:52;99638.41;;;0.60;82.93
75913;BME280;64592;52.168;21.040;2022-12-07T23:59:54;99626.13;;;0.59;82.90
